Terminal Aerodrome Forecast
Issued by NWS

Home | Current Version | Previous Version | Text Only | Print | Product List | Glossary On
Versions: 1 2 3 4 5 6 7 8 9 10 11 12 13 14 15 16 17 18 19
000
FTUS43 KUNR 151601 AAA
TAFGCC
TAF AMD
KGCC 151601Z 1516/1612 32015G25KT P6SM OVC015
     FM151800 34012G22KT P6SM -SHRA OVC015
     FM152000 34020G30KT P6SM -RA OVC007
     FM160100 31012KT 4SM -RASN BR OVC004=

USA.gov is the U.S. government's official web portal to all federal, state and local government web resources and services.